createdAt,value
2019-04-16T00:01:13.931Z,87.00
2019-04-16T00:03:45.097Z,87.00
2019-04-16T00:06:21.847Z,87.10
2019-04-16T00:08:54.177Z,87.00
2019-04-16T00:11:40.765Z,87.30
2019-04-16T00:14:26.169Z,87.30
2019-04-16T00:16:55.078Z,87.80
2019-04-16T00:19:24.192Z,87.30
2019-04-16T00:21:54.660Z,87.60
2019-04-16T00:24:25.234Z,87.40
2019-04-16T00:26:57.793Z,86.90
2019-04-16T00:29:25.194Z,86.90
2019-04-16T00:31:55.692Z,87.00
2019-04-16T00:34:24.793Z,87.00
2019-04-16T00:36:53.683Z,87.00
2019-04-16T00:39:24.833Z,87.30
2019-04-16T00:41:53.297Z,87.00
2019-04-16T00:44:22.348Z,87.00
2019-04-16T00:46:51.288Z,87.70
2019-04-16T00:49:20.167Z,87.20
2019-04-16T00:51:49.195Z,87.30
2019-04-16T00:54:18.408Z,86.80
2019-04-16T00:56:47.568Z,86.70
2019-04-16T00:59:16.725Z,87.20
2019-04-16T01:01:45.697Z,87.10
2019-04-16T01:04:14.560Z,87.20
2019-04-16T01:06:43.495Z,87.30
2019-04-16T01:09:12.395Z,87.40
2019-04-16T01:11:41.375Z,87.70
2019-04-16T01:14:10.257Z,87.50
2019-04-16T01:16:39.206Z,87.30
2019-04-16T01:19:10.001Z,88.00
2019-04-16T01:21:38.672Z,87.40
2019-04-16T01:24:07.769Z,87.40
2019-04-16T01:26:38.121Z,87.60
2019-04-16T01:29:08.584Z,87.30
2019-04-16T01:31:39.352Z,87.20
2019-04-16T01:34:18.985Z,87.50
2019-04-16T01:37:06.005Z,88.00
2019-04-16T01:39:36.452Z,88.30
2019-04-16T01:42:05.477Z,87.90
2019-04-16T01:44:37.171Z,87.60
2019-04-16T01:47:06.224Z,87.30
2019-04-16T01:49:35.212Z,87.50
2019-04-16T01:52:04.153Z,87.60
2019-04-16T01:54:33.515Z,87.50
2019-04-16T01:57:02.948Z,87.70
2019-04-16T01:59:35.610Z,88.10
2019-04-16T02:02:02.356Z,88.30
2019-04-16T02:04:31.391Z,88.50
2019-04-16T02:07:00.291Z,88.30
2019-04-16T02:09:34.191Z,88.20
2019-04-16T02:11:59.849Z,88.20
2019-04-16T02:14:28.879Z,88.50
2019-04-16T02:16:57.855Z,88.90
2019-04-16T02:19:26.795Z,88.90
2019-04-16T02:21:56.775Z,88.80
2019-04-16T02:24:25.802Z,89.10
2019-04-16T02:26:55.453Z,89.50
2019-04-16T02:29:24.533Z,89.20
2019-04-16T02:31:53.414Z,89.70
2019-04-16T02:34:22.368Z,89.70
2019-04-16T02:36:51.540Z,89.50
2019-04-16T02:39:27.522Z,89.60
2019-04-16T02:41:57.072Z,89.70
2019-04-16T02:44:21.811Z,89.50
2019-04-16T02:46:50.712Z,89.50
2019-04-16T02:49:23.267Z,89.50
2019-04-16T02:52:15.013Z,89.80
2019-04-16T02:54:56.642Z,89.90
2019-04-16T02:57:27.939Z,89.90
2019-04-16T02:59:58.943Z,90.00
2019-04-16T03:02:41.853Z,90.30
2019-04-16T03:05:14.923Z,90.20
2019-04-16T03:07:43.822Z,90.20
2019-04-16T03:10:13.963Z,90.30
2019-04-16T03:12:43.067Z,90.10
2019-04-16T03:15:13.110Z,90.10
2019-04-16T03:17:46.148Z,90.10
2019-04-16T03:20:17.534Z,90.10
2019-04-16T03:22:46.476Z,90.30
2019-04-16T03:25:15.409Z,90.30
2019-04-16T03:27:44.278Z,90.30
2019-04-16T03:30:13.608Z,90.20
2019-04-16T03:32:50.283Z,90.20
2019-04-16T03:35:19.296Z,90.30
2019-04-16T03:37:48.170Z,90.30
2019-04-16T03:40:18.938Z,90.60
2019-04-16T03:42:50.630Z,90.50
2019-04-16T03:45:19.568Z,90.40
2019-04-16T03:47:51.408Z,90.50
2019-04-16T03:50:19.402Z,90.50
2019-04-16T03:52:48.327Z,90.50
2019-04-16T03:55:17.502Z,90.50
2019-04-16T03:57:46.398Z,90.50
2019-04-16T04:00:15.385Z,90.40
2019-04-16T04:02:44.325Z,90.50
2019-04-16T04:05:13.978Z,90.60
2019-04-16T04:07:44.190Z,90.50
2019-04-16T04:10:14.050Z,90.60
2019-04-16T04:12:45.657Z,90.50
2019-04-16T04:15:33.820Z,90.50
2019-04-16T04:18:02.703Z,90.40
2019-04-16T04:20:32.312Z,90.40
2019-04-16T04:23:01.237Z,90.30
2019-04-16T04:25:35.973Z,90.40
2019-04-16T04:28:01.891Z,90.20
2019-04-16T04:30:30.837Z,90.30
2019-04-16T04:32:59.789Z,90.30
2019-04-16T04:35:28.929Z,90.40
2019-04-16T04:38:00.772Z,90.50
2019-04-16T04:40:28.393Z,90.60
2019-04-16T04:42:57.638Z,90.50
2019-04-16T04:45:28.019Z,90.60
2019-04-16T04:47:58.369Z,90.50
2019-04-16T04:50:27.266Z,90.30
2019-04-16T04:52:56.193Z,90.40
2019-04-16T04:55:26.945Z,90.40
2019-04-16T04:57:55.723Z,90.40
2019-04-16T05:00:24.644Z,90.40
2019-04-16T05:02:53.523Z,90.40
2019-04-16T05:05:26.985Z,90.40
2019-04-16T05:07:59.730Z,90.40
2019-04-16T05:10:26.425Z,90.30
2019-04-16T05:16:01.995Z,90.40
2019-04-16T05:18:30.868Z,90.40
2019-04-16T05:20:59.790Z,90.50
2019-04-16T05:23:29.005Z,90.50
2019-04-16T05:25:58.064Z,90.50
2019-04-16T05:28:26.953Z,90.60
2019-04-16T05:30:55.971Z,90.50
2019-04-16T05:33:24.955Z,90.50
2019-04-16T05:35:54.011Z,90.50
2019-04-16T05:38:23.805Z,90.50
2019-04-16T05:40:53.757Z,90.50
2019-04-16T05:43:23.037Z,90.40
2019-04-16T05:45:52.517Z,90.50
2019-04-16T05:48:22.725Z,90.50
2019-04-16T05:50:51.831Z,90.50
2019-04-16T05:53:20.723Z,90.30
2019-04-16T05:56:03.362Z,90.30
2019-04-16T05:58:32.673Z,90.50
2019-04-16T06:01:13.693Z,90.40
2019-04-16T06:03:42.475Z,90.40
2019-04-16T06:06:11.358Z,90.40
2019-04-16T06:08:41.588Z,90.40
2019-04-16T06:11:10.801Z,90.40
2019-04-16T06:13:44.330Z,90.40
2019-04-16T06:16:25.963Z,90.40
2019-04-16T06:18:56.825Z,90.40
2019-04-16T06:21:43.789Z,90.40
2019-04-16T06:24:29.385Z,90.30
2019-04-16T06:27:03.122Z,90.40
2019-04-16T06:29:42.525Z,90.30
2019-04-16T06:32:13.140Z,90.40
2019-04-16T06:34:50.729Z,90.60
2019-04-16T06:37:30.170Z,90.60
2019-04-16T06:40:16.996Z,90.60
2019-04-16T06:42:51.474Z,90.70
2019-04-16T06:45:22.853Z,90.90
2019-04-16T06:47:56.088Z,90.90
2019-04-16T06:50:32.127Z,90.90
2019-04-16T06:53:12.366Z,90.80
2019-04-16T06:55:52.119Z,90.60
2019-04-16T06:58:49.702Z,90.90
2019-04-16T07:01:06.768Z,90.90
2019-04-16T07:03:35.766Z,91.00
2019-04-16T07:06:06.271Z,91.10
2019-04-16T07:08:55.073Z,91.00
2019-04-16T07:11:28.741Z,91.10
2019-04-16T07:13:57.897Z,91.10
2019-04-16T07:16:28.941Z,90.90
2019-04-16T07:18:57.332Z,90.80
2019-04-16T07:21:26.217Z,90.80
2019-04-16T07:23:58.191Z,90.80
2019-04-16T07:26:25.747Z,90.90
2019-04-16T07:28:58.933Z,90.80
2019-04-16T07:31:46.751Z,90.90
2019-04-16T07:34:32.452Z,91.00
2019-04-16T07:37:02.939Z,90.90
2019-04-16T07:39:37.255Z,90.90
2019-04-16T07:42:26.475Z,90.90
2019-04-16T07:44:57.257Z,91.00
2019-04-16T07:47:33.681Z,90.80
2019-04-16T07:50:04.115Z,90.80
2019-04-16T07:52:53.061Z,90.80
2019-04-16T07:55:29.377Z,90.80
2019-04-16T07:57:58.288Z,90.90
2019-04-16T08:00:27.197Z,91.00
2019-04-16T08:02:56.070Z,90.90
2019-04-16T08:05:27.626Z,91.10
2019-04-16T08:07:55.542Z,91.30
2019-04-16T08:10:24.425Z,91.00
2019-04-16T08:12:56.921Z,90.80
2019-04-16T08:15:25.997Z,90.80
2019-04-16T08:17:54.897Z,90.50
2019-04-16T08:20:23.829Z,90.40
2019-04-16T08:22:54.268Z,90.70
2019-04-16T08:25:27.489Z,90.80
2019-04-16T08:27:56.363Z,90.80
2019-04-16T08:30:25.269Z,90.80
2019-04-16T08:32:54.217Z,90.50
2019-04-16T08:35:23.098Z,90.30
2019-04-16T08:37:51.998Z,90.10
2019-04-16T08:40:21.427Z,90.50
2019-04-16T08:42:50.312Z,90.10
2019-04-16T08:45:20.769Z,90.00
2019-04-16T08:47:49.837Z,89.90
2019-04-16T08:50:18.730Z,89.80
2019-04-16T08:52:48.046Z,90.20
2019-04-16T08:55:17.081Z,90.10
2019-04-16T08:57:47.021Z,90.40
2019-04-16T09:00:16.462Z,90.10
2019-04-16T09:02:45.494Z,90.00
2019-04-16T09:05:14.515Z,90.10
2019-04-16T09:07:43.423Z,89.40
2019-04-16T09:10:21.414Z,88.80
2019-04-16T09:13:01.993Z,88.70
2019-04-16T09:15:22.405Z,89.20
2019-04-16T09:17:52.860Z,88.00
2019-04-16T09:20:23.537Z,88.30
2019-04-16T09:22:53.614Z,88.10
2019-04-16T09:25:45.864Z,88.20
2019-04-16T09:28:25.367Z,87.20
2019-04-16T09:31:03.472Z,87.60
2019-04-16T09:33:52.038Z,88.30
2019-04-16T09:36:38.678Z,86.80
2019-04-16T09:39:13.371Z,86.10
2019-04-16T09:41:43.445Z,86.20
2019-04-16T09:44:12.803Z,86.10
2019-04-16T09:46:51.565Z,86.10
2019-04-16T09:49:12.540Z,86.30
2019-04-16T09:51:41.718Z,86.10
2019-04-16T09:54:13.364Z,86.30
2019-04-16T09:56:41.165Z,87.40
2019-04-16T09:59:15.696Z,87.70
2019-04-16T10:01:49.662Z,87.10
2019-04-16T10:04:20.153Z,87.40
2019-04-16T10:06:49.142Z,86.80
2019-04-16T10:09:21.636Z,87.00
2019-04-16T10:11:48.713Z,86.30
2019-04-16T10:14:18.581Z,86.00
2019-04-16T10:16:50.595Z,85.90
2019-04-16T10:19:21.264Z,86.00
2019-04-16T10:21:53.425Z,86.10
2019-04-16T10:24:22.250Z,86.40
2019-04-16T10:26:52.853Z,86.10
2019-04-16T10:29:23.448Z,86.70
2019-04-16T10:31:53.570Z,87.10
2019-04-16T10:34:22.694Z,87.20
2019-04-16T10:36:51.740Z,86.80
2019-04-16T10:39:31.085Z,86.30
2019-04-16T10:42:15.497Z,86.50
2019-04-16T10:44:49.033Z,86.60
2019-04-16T10:47:22.344Z,86.70
2019-04-16T10:50:04.819Z,86.30
2019-04-16T10:52:41.244Z,86.30
2019-04-16T10:55:12.161Z,86.40
2019-04-16T10:57:44.826Z,85.90
2019-04-16T11:00:16.042Z,86.70
2019-04-16T11:02:46.571Z,85.70
2019-04-16T11:05:27.894Z,86.40
2019-04-16T11:08:04.007Z,86.50
2019-04-16T11:10:31.621Z,86.10
2019-04-16T11:13:02.012Z,86.40
2019-04-16T11:15:30.953Z,86.90
2019-04-16T11:17:59.867Z,86.80
2019-04-16T11:20:28.771Z,86.40
2019-04-16T11:22:57.865Z,86.20
2019-04-16T11:25:26.721Z,86.10
2019-04-16T11:27:55.627Z,86.30
2019-04-16T11:30:28.858Z,85.50
2019-04-16T11:32:57.828Z,85.40
2019-04-16T11:35:26.896Z,85.10
2019-04-16T11:37:55.934Z,85.70
2019-04-16T11:40:24.903Z,84.60
2019-04-16T11:42:53.823Z,84.50
2019-04-16T11:45:22.788Z,84.60
2019-04-16T11:47:51.668Z,85.20
2019-04-16T11:50:20.555Z,85.30
2019-04-16T11:52:49.519Z,85.30
2019-04-16T11:55:18.482Z,85.00
2019-04-16T11:57:47.406Z,85.20
2019-04-16T12:00:27.693Z,85.30
2019-04-16T12:03:04.251Z,84.80
2019-04-16T12:05:46.881Z,84.30
2019-04-16T12:08:20.056Z,85.00
2019-04-16T12:11:08.794Z,84.90
2019-04-16T12:13:44.885Z,84.80
2019-04-16T12:16:25.348Z,85.50
2019-04-16T12:19:05.075Z,85.70
2019-04-16T12:21:53.734Z,86.20
2019-04-16T12:24:43.224Z,85.70
2019-04-16T12:27:15.242Z,85.60
2019-04-16T12:29:51.945Z,85.70
2019-04-16T12:32:40.915Z,84.70
2019-04-16T12:35:23.231Z,84.70
2019-04-16T12:38:13.241Z,84.00
2019-04-16T12:40:58.727Z,84.40
2019-04-16T12:43:41.188Z,84.50
2019-04-16T12:46:14.772Z,84.90
2019-04-16T12:48:54.487Z,85.40
2019-04-16T12:51:25.037Z,84.90
2019-04-16T12:54:07.791Z,84.50
2019-04-16T12:56:54.554Z,84.70
2019-04-16T12:59:34.389Z,84.60
2019-04-16T13:02:04.854Z,84.50
2019-04-16T13:04:38.234Z,84.90
2019-04-16T13:07:14.733Z,84.60
2019-04-16T13:09:48.254Z,84.60
2019-04-16T13:12:35.089Z,84.70
2019-04-16T13:15:09.282Z,85.10
2019-04-16T13:17:56.328Z,85.50
2019-04-16T13:20:29.174Z,85.20
2019-04-16T13:22:59.011Z,84.40
2019-04-16T13:25:41.468Z,84.60
2019-04-16T13:28:10.489Z,84.40
2019-04-16T13:30:39.455Z,84.20
2019-04-16T13:33:08.567Z,84.30
2019-04-16T13:35:37.448Z,84.00
2019-04-16T13:38:09.494Z,84.10
2019-04-16T13:40:36.961Z,83.60
2019-04-16T13:43:06.796Z,83.90
2019-04-16T13:45:37.827Z,84.00
2019-04-16T13:48:16.890Z,84.20
2019-04-16T13:50:43.536Z,83.50
2019-04-16T13:53:14.143Z,83.80
2019-04-16T13:55:56.697Z,83.10
2019-04-16T13:58:31.801Z,83.50
2019-04-16T14:01:08.703Z,84.00
2019-04-16T14:03:36.802Z,84.20
2019-04-16T14:06:09.315Z,83.60
2019-04-16T14:08:36.225Z,83.10
2019-04-16T14:11:05.360Z,83.30
2019-04-16T14:13:34.266Z,82.90
2019-04-16T14:16:04.445Z,83.00
2019-04-16T14:18:33.423Z,82.70
2019-04-16T14:21:02.362Z,82.20
2019-04-16T14:23:31.252Z,83.10
2019-04-16T14:26:00.188Z,83.30
2019-04-16T14:28:34.326Z,83.40
2019-04-16T14:30:59.726Z,83.80
2019-04-16T14:33:30.238Z,84.20
2019-04-16T14:35:59.136Z,83.70
2019-04-16T14:38:29.914Z,84.10
2019-04-16T14:40:58.871Z,83.60
2019-04-16T14:43:30.079Z,83.80
2019-04-16T14:46:00.335Z,84.20
2019-04-16T14:48:29.982Z,83.80
2019-04-16T14:50:58.949Z,83.00
2019-04-16T14:53:32.477Z,82.70
2019-04-16T14:56:02.982Z,82.90
2019-04-16T14:58:36.203Z,83.80
2019-04-16T15:01:23.113Z,83.10
2019-04-16T15:04:02.656Z,83.30
2019-04-16T15:06:39.000Z,83.00
2019-04-16T15:09:25.902Z,82.90
2019-04-16T15:12:14.771Z,82.60
2019-04-16T15:14:45.876Z,82.60
2019-04-16T15:17:19.178Z,83.00
2019-04-16T15:19:56.982Z,83.00
2019-04-16T15:22:27.527Z,82.90
2019-04-16T15:25:07.059Z,83.30
2019-04-16T15:27:43.581Z,83.10
2019-04-16T15:30:14.154Z,83.30
2019-04-16T15:32:47.359Z,83.00
2019-04-16T15:35:23.418Z,83.10
2019-04-16T15:38:03.049Z,83.00
2019-04-16T15:40:36.596Z,82.90
2019-04-16T15:43:11.390Z,82.80
2019-04-16T15:45:41.924Z,82.80
2019-04-16T15:48:18.058Z,82.80
2019-04-16T15:50:47.577Z,82.90
2019-04-16T15:53:34.219Z,82.10
2019-04-16T15:56:04.727Z,82.20
2019-04-16T15:58:35.189Z,82.00
2019-04-16T16:01:05.636Z,82.60
2019-04-16T16:03:55.110Z,81.00
2019-04-16T16:06:31.681Z,81.40
2019-04-16T16:09:18.676Z,81.40
2019-04-16T16:11:58.376Z,81.60
2019-04-16T16:14:33.222Z,81.40
2019-04-16T16:16:57.861Z,80.40
2019-04-16T16:19:26.751Z,79.60
2019-04-16T16:21:55.709Z,79.60
2019-04-16T16:24:24.588Z,79.90
2019-04-16T16:26:53.612Z,79.50
2019-04-16T16:29:22.601Z,79.70
2019-04-16T16:31:51.484Z,80.50
2019-04-16T16:34:20.381Z,79.50
2019-04-16T16:36:49.373Z,79.20
2019-04-16T16:39:18.258Z,79.40
2019-04-16T16:41:47.145Z,79.30
2019-04-16T16:44:16.112Z,78.30
2019-04-16T16:46:56.638Z,79.10
2019-04-16T16:49:20.089Z,78.60
2019-04-16T16:51:50.652Z,78.50
2019-04-16T16:54:24.129Z,78.70
2019-04-16T16:56:54.623Z,77.60
2019-04-16T16:59:27.879Z,77.70
2019-04-16T17:02:16.321Z,77.70
2019-04-16T17:04:49.871Z,77.50
2019-04-16T17:07:18.926Z,77.70
2019-04-16T17:09:47.823Z,77.40
2019-04-16T17:12:16.715Z,76.10
2019-04-16T17:14:45.675Z,76.20
2019-04-16T17:17:15.236Z,76.30
2019-04-16T17:19:44.555Z,77.20
2019-04-16T17:22:14.654Z,77.20
2019-04-16T17:24:44.062Z,76.80
2019-04-16T17:27:12.954Z,76.80
2019-04-16T17:29:41.907Z,77.00
2019-04-16T17:32:10.802Z,76.90
2019-04-16T17:34:40.891Z,76.90
2019-04-16T17:37:10.033Z,76.90
2019-04-16T17:39:42.633Z,77.00
2019-04-16T17:42:15.694Z,77.10
2019-04-16T17:44:55.365Z,77.10
2019-04-16T17:47:42.273Z,77.20
2019-04-16T17:50:12.735Z,76.90
2019-04-16T17:52:43.213Z,77.30
2019-04-16T17:55:25.965Z,77.80
2019-04-16T17:57:59.415Z,78.40
2019-04-16T18:00:46.101Z,78.90
2019-04-16T18:03:22.732Z,78.10
2019-04-16T18:05:53.248Z,78.20
2019-04-16T18:08:29.586Z,78.60
2019-04-16T18:11:02.559Z,78.50
2019-04-16T18:13:36.049Z,78.70
2019-04-16T18:16:09.598Z,79.10
2019-04-16T18:18:46.059Z,79.20
2019-04-16T18:21:16.588Z,79.80
2019-04-16T18:23:48.151Z,80.10
2019-04-16T18:26:21.684Z,79.20
2019-04-16T18:29:02.101Z,79.30
2019-04-16T18:31:39.452Z,79.40
2019-04-16T18:34:26.057Z,79.50
2019-04-16T18:36:59.988Z,78.90
2019-04-16T18:39:37.129Z,79.30
2019-04-16T18:42:06.202Z,80.00
2019-04-16T18:44:55.009Z,80.60
2019-04-16T18:47:23.960Z,81.00
2019-04-16T18:49:54.549Z,81.10
2019-04-16T18:52:23.536Z,81.40
2019-04-16T18:54:52.475Z,81.10
2019-04-16T18:57:21.362Z,80.80
2019-04-16T18:59:50.256Z,80.40
2019-04-16T19:02:19.779Z,80.60
2019-04-16T19:04:50.908Z,81.60
2019-04-16T19:07:19.193Z,81.20
2019-04-16T19:09:48.221Z,81.50
2019-04-16T19:12:17.092Z,81.90
2019-04-16T19:14:46.001Z,82.10
2019-04-16T19:17:16.797Z,81.50
2019-04-16T19:19:45.787Z,80.40
2019-04-16T19:22:14.761Z,80.30
2019-04-16T19:24:44.097Z,80.10
2019-04-16T19:27:13.006Z,80.40
2019-04-16T19:29:42.884Z,80.80
2019-04-16T19:32:12.494Z,81.60
2019-04-16T19:34:41.864Z,82.20
2019-04-16T19:37:10.901Z,82.30
2019-04-16T19:39:39.977Z,82.00
2019-04-16T19:42:11.265Z,81.00
2019-04-16T19:44:40.505Z,80.70
2019-04-16T19:47:10.197Z,80.50
2019-04-16T19:49:39.233Z,80.50
2019-04-16T19:52:08.147Z,80.80
2019-04-16T19:54:39.549Z,81.80
2019-04-16T19:57:08.441Z,82.20
2019-04-16T19:59:37.344Z,83.20
2019-04-16T20:02:08.014Z,83.00
2019-04-16T20:04:36.899Z,82.70
2019-04-16T20:07:05.892Z,82.60
2019-04-16T20:09:38.840Z,82.60
2019-04-16T20:12:05.872Z,82.90
2019-04-16T20:14:37.117Z,83.20
2019-04-16T20:17:06.072Z,82.80
2019-04-16T20:19:36.521Z,83.10
2019-04-16T20:22:05.633Z,82.90
2019-04-16T20:24:34.747Z,82.80
2019-04-16T20:27:06.153Z,82.10
2019-04-16T20:29:37.484Z,82.50
2019-04-16T20:32:06.420Z,82.50
2019-04-16T20:34:35.333Z,82.70
2019-04-16T20:37:04.247Z,83.00
2019-04-16T20:39:33.479Z,83.20
2019-04-16T20:42:02.357Z,84.00
2019-04-16T20:44:31.400Z,83.50
2019-04-16T20:47:03.593Z,83.60
2019-04-16T20:49:30.902Z,82.90
2019-04-16T20:52:00.633Z,82.90
2019-04-16T20:54:31.305Z,82.80
2019-04-16T20:57:00.300Z,82.60
2019-04-16T20:59:29.188Z,83.50
2019-04-16T21:01:58.121Z,82.60
2019-04-16T21:04:27.060Z,82.10
2019-04-16T21:06:55.952Z,82.30
2019-04-16T21:09:26.811Z,82.50
2019-04-16T21:11:55.886Z,82.60
2019-04-16T21:14:24.768Z,82.70
2019-04-16T21:16:53.861Z,82.80
2019-04-16T21:19:24.297Z,83.10
2019-04-16T21:21:56.419Z,82.30
2019-04-16T21:24:23.899Z,82.30
2019-04-16T21:26:52.796Z,82.20
2019-04-16T21:29:26.166Z,82.10
2019-04-16T21:31:59.176Z,82.20
2019-04-16T21:34:35.361Z,81.90
2019-04-16T21:37:18.027Z,81.90
2019-04-16T21:39:51.139Z,82.00
2019-04-16T21:42:18.992Z,81.90
2019-04-16T21:44:51.637Z,81.70
2019-04-16T21:47:23.169Z,82.00
2019-04-16T21:49:51.152Z,82.50
2019-04-16T21:52:23.224Z,82.30
2019-04-16T21:54:50.635Z,81.80
2019-04-16T21:57:19.520Z,81.90
2019-04-16T21:59:50.244Z,82.00
2019-04-16T22:02:27.364Z,82.10
2019-04-16T22:04:58.226Z,81.60
2019-04-16T22:07:29.675Z,81.40
2019-04-16T22:09:59.733Z,81.40
2019-04-16T22:12:30.747Z,81.60
2019-04-16T22:15:00.009Z,82.00
2019-04-16T22:17:29.483Z,82.00
2019-04-16T22:20:03.559Z,81.80
2019-04-16T22:22:30.453Z,81.40
2019-04-16T22:25:19.018Z,81.30
2019-04-16T22:27:50.272Z,81.00
2019-04-16T22:30:20.195Z,81.00
2019-04-16T22:32:50.416Z,81.20
2019-04-16T22:35:20.031Z,81.20
2019-04-16T22:37:49.677Z,81.30
2019-04-16T22:40:22.876Z,81.20
2019-04-16T22:43:06.238Z,81.10
2019-04-16T22:45:52.175Z,81.40
2019-04-16T22:48:23.742Z,81.70
2019-04-16T22:50:52.707Z,81.60
2019-04-16T22:53:22.421Z,81.40
2019-04-16T22:55:56.489Z,81.30
2019-04-16T22:58:27.807Z,81.70
2019-04-16T23:00:58.961Z,81.60
2019-04-16T23:03:28.419Z,80.50
2019-04-16T23:06:05.130Z,80.40
2019-04-16T23:08:32.685Z,81.50
2019-04-16T23:11:01.919Z,81.40
2019-04-16T23:13:37.083Z,81.40
2019-04-16T23:16:08.166Z,81.40
2019-04-16T23:18:37.922Z,80.40
2019-04-16T23:21:17.672Z,80.50
2019-04-16T23:23:47.691Z,80.40
2019-04-16T23:26:17.215Z,80.90
2019-04-16T23:28:46.141Z,81.10
2019-04-16T23:31:15.042Z,81.60
2019-04-16T23:33:45.677Z,81.70
2019-04-16T23:36:16.551Z,82.10
2019-04-16T23:38:45.210Z,82.10
2019-04-16T23:41:16.694Z,81.80
2019-04-16T23:43:50.529Z,81.10
2019-04-16T23:46:34.604Z,81.20
2019-04-16T23:49:11.808Z,81.70
2019-04-16T23:51:45.261Z,81.60
2019-04-16T23:54:15.815Z,81.40
2019-04-16T23:56:52.967Z,81.50
2019-04-16T23:59:39.109Z,81.60
